Time;durP1;ratioP1;P1;durP2;ratioP2;P2;SDS_P1;SDS_P2;PMS_P1;PMS_P2;Temp;Humidity;BMP_temperature;BMP_pressure;BME280_temperature;BME280_humidity;BME280_pressure;Samples;Min_cycle;Max_cycle;Signal;HPM_P1;HPM_P2
2023/03/14 00:02:36;;;;;;;18.20;10.10;;;;;;;-128.00;-1.00;-1.00;133930;1275;1002498;-79
2023/03/14 00:05:38;;;;;;;15.60;10.10;;;;;;;-128.00;-1.00;-1.00;133910;1275;1001682;-78
2023/03/14 00:08:41;;;;;;;15.20;10.00;;;;;;;-128.00;-1.00;-1.00;133921;1275;1002603;-79
2023/03/14 00:11:43;;;;;;;16.10;9.70;;;;;;;-128.00;-1.00;-1.00;133855;1275;1002349;-79
2023/03/14 00:14:46;;;;;;;13.60;9.30;;;;;;;-128.00;-1.00;-1.00;133858;1275;1002054;-79
2023/03/14 00:17:48;;;;;;;13.60;8.90;;;;;;;-128.00;-1.00;-1.00;133849;1275;1003107;-79
2023/03/14 00:20:50;;;;;;;13.30;8.80;;;;;;;-128.00;-1.00;-1.00;133853;1275;1001693;-79
2023/03/14 00:23:53;;;;;;;17.50;9.60;;;;;;;-128.00;-1.00;-1.00;133839;1275;1002362;-79
2023/03/14 00:26:55;;;;;;;15.20;8.90;;;;;;;-128.00;-1.00;-1.00;133810;1275;1001997;-78
2023/03/14 00:29:58;;;;;;;16.10;9.20;;;;;;;-128.00;-1.00;-1.00;133826;1275;1002684;-79
2023/03/14 00:33:00;;;;;;;19.00;9.80;;;;;;;-128.00;-1.00;-1.00;133878;1275;1001962;-78
2023/03/14 00:36:03;;;;;;;14.60;9.30;;;;;;;-128.00;-1.00;-1.00;133854;1275;1002247;-78
2023/03/14 00:39:05;;;;;;;18.90;9.40;;;;;;;-128.00;-1.00;-1.00;133865;1275;1002353;-80
2023/03/14 00:42:07;;;;;;;17.90;9.70;;;;;;;-128.00;-1.00;-1.00;133888;1275;1002384;-78
2023/03/14 00:45:10;;;;;;;17.70;9.60;;;;;;;-128.00;-1.00;-1.00;133843;1275;1002105;-78
2023/03/14 00:48:13;;;;;;;16.10;9.40;;;;;;;-128.00;-1.00;-1.00;133851;1275;1001848;-78
2023/03/14 00:51:15;;;;;;;16.40;10.40;;;;;;;-128.00;-1.00;-1.00;133822;1274;1002139;-78
2023/03/14 00:54:18;;;;;;;15.80;9.70;;;;;;;-128.00;-1.00;-1.00;133859;1275;1002038;-77
2023/03/14 00:57:20;;;;;;;18.00;10.50;;;;;;;-128.00;-1.00;-1.00;133863;1275;1002399;-78
2023/03/14 01:00:23;;;;;;;16.80;9.50;;;;;;;-128.00;-1.00;-1.00;133839;1275;1002891;-78
2023/03/14 01:03:25;;;;;;;14.30;9.60;;;;;;;-128.00;-1.00;-1.00;133836;1274;1002100;-78
2023/03/14 01:06:28;;;;;;;14.50;9.90;;;;;;;-128.00;-1.00;-1.00;133850;1274;1002461;-78
2023/03/14 01:09:30;;;;;;;15.50;9.20;;;;;;;-128.00;-1.00;-1.00;133880;1274;1002037;-78
2023/03/14 01:12:33;;;;;;;14.30;9.40;;;;;;;-128.00;-1.00;-1.00;133855;1274;1002254;-78
2023/03/14 01:15:35;;;;;;;17.20;9.80;;;;;;;-128.00;-1.00;-1.00;133873;1275;1002653;-77
2023/03/14 01:18:38;;;;;;;17.70;10.00;;;;;;;-128.00;-1.00;-1.00;133897;1274;1002392;-78
2023/03/14 01:21:40;;;;;;;19.60;10.00;;;;;;;-128.00;-1.00;-1.00;133860;1274;1002012;-79
2023/03/14 01:24:42;;;;;;;15.30;9.10;;;;;;;-128.00;-1.00;-1.00;133874;1274;1002559;-78
2023/03/14 01:27:45;;;;;;;16.10;8.70;;;;;;;-128.00;-1.00;-1.00;133854;1275;1002029;-78
2023/03/14 01:30:47;;;;;;;15.60;8.70;;;;;;;-128.00;-1.00;-1.00;133876;1274;1002473;-78
2023/03/14 01:33:50;;;;;;;15.90;9.10;;;;;;;-128.00;-1.00;-1.00;133843;1274;1002842;-79
2023/03/14 01:36:52;;;;;;;12.70;8.80;;;;;;;-128.00;-1.00;-1.00;133845;1274;1002408;-78
2023/03/14 01:39:54;;;;;;;12.70;8.10;;;;;;;-128.00;-1.00;-1.00;133863;1274;1002563;-78
2023/03/14 01:42:57;;;;;;;12.10;7.60;;;;;;;-128.00;-1.00;-1.00;133822;1274;1002969;-78
2023/03/14 01:45:59;;;;;;;15.30;8.50;;;;;;;-128.00;-1.00;-1.00;133843;1274;1001844;-78
2023/03/14 01:49:02;;;;;;;14.10;8.00;;;;;;;-128.00;-1.00;-1.00;133882;1275;1002446;-78
2023/03/14 01:52:04;;;;;;;12.50;7.10;;;;;;;-128.00;-1.00;-1.00;133899;1274;1002508;-79
2023/03/14 01:55:07;;;;;;;16.80;7.50;;;;;;;-128.00;-1.00;-1.00;133861;1274;1002093;-78
2023/03/14 01:58:09;;;;;;;11.20;8.00;;;;;;;-128.00;-1.00;-1.00;133895;1274;1002450;-78
2023/03/14 02:01:11;;;;;;;11.10;7.60;;;;;;;-128.00;-1.00;-1.00;133905;1274;1001933;-79
2023/03/14 02:04:14;;;;;;;11.70;7.50;;;;;;;-128.00;-1.00;-1.00;133898;1274;1001899;-78
2023/03/14 02:07:16;;;;;;;12.70;7.50;;;;;;;-128.00;-1.00;-1.00;133930;1274;1002291;-78
2023/03/14 02:10:19;;;;;;;13.00;7.20;;;;;;;-128.00;-1.00;-1.00;133904;1274;1002243;-81
2023/03/14 02:13:21;;;;;;;9.90;6.80;;;;;;;-128.00;-1.00;-1.00;133878;1275;1002387;-78
2023/03/14 02:16:24;;;;;;;16.20;7.20;;;;;;;-128.00;-1.00;-1.00;133908;1274;1003033;-78
2023/03/14 02:19:26;;;;;;;15.00;7.90;;;;;;;-128.00;-1.00;-1.00;133880;1274;1003024;-78
2023/03/14 02:22:29;;;;;;;15.10;8.30;;;;;;;-128.00;-1.00;-1.00;133900;1275;1002154;-79
2023/03/14 02:25:31;;;;;;;11.20;6.90;;;;;;;-128.00;-1.00;-1.00;133878;1274;1002183;-79
2023/03/14 02:28:33;;;;;;;13.30;7.10;;;;;;;-128.00;-1.00;-1.00;133923;1274;1002563;-79
2023/03/14 02:31:36;;;;;;;11.10;7.00;;;;;;;-128.00;-1.00;-1.00;133920;1274;1002409;-79
2023/03/14 02:34:38;;;;;;;13.50;7.10;;;;;;;-128.00;-1.00;-1.00;133901;1274;1002343;-79
2023/03/14 02:37:41;;;;;;;12.70;6.70;;;;;;;-128.00;-1.00;-1.00;133893;1274;1002433;-78
2023/03/14 02:40:44;;;;;;;11.60;6.20;;;;;;;-128.00;-1.00;-1.00;133873;1275;1001875;-81
2023/03/14 02:43:46;;;;;;;10.30;5.90;;;;;;;-128.00;-1.00;-1.00;133856;1274;1002468;-79
2023/03/14 02:46:48;;;;;;;10.80;6.30;;;;;;;-128.00;-1.00;-1.00;133886;1275;1002657;-80
2023/03/14 02:49:51;;;;;;;11.10;6.20;;;;;;;-128.00;-1.00;-1.00;133916;1274;1002529;-79
2023/03/14 02:52:53;;;;;;;9.80;6.10;;;;;;;-128.00;-1.00;-1.00;133906;1274;1002139;-79
2023/03/14 02:55:56;;;;;;;12.10;6.20;;;;;;;-128.00;-1.00;-1.00;133892;1274;1002447;-79
2023/03/14 02:58:58;;;;;;;10.20;5.60;;;;;;;-128.00;-1.00;-1.00;133873;1274;1002947;-78
2023/03/14 03:02:00;;;;;;;11.50;6.00;;;;;;;-128.00;-1.00;-1.00;133952;1274;1002440;-78
2023/03/14 03:05:03;;;;;;;8.20;6.30;;;;;;;-128.00;-1.00;-1.00;133919;1274;1002519;-78
2023/03/14 03:08:05;;;;;;;8.60;5.60;;;;;;;-128.00;-1.00;-1.00;133906;1274;1002338;-78
2023/03/14 03:11:08;;;;;;;8.00;5.90;;;;;;;-128.00;-1.00;-1.00;133889;1274;1002441;-78
2023/03/14 03:14:10;;;;;;;7.20;5.20;;;;;;;-128.00;-1.00;-1.00;133896;1274;1002195;-78
2023/03/14 03:17:13;;;;;;;6.70;5.30;;;;;;;-128.00;-1.00;-1.00;133885;1274;1002273;-79
2023/03/14 03:20:15;;;;;;;10.60;5.70;;;;;;;-128.00;-1.00;-1.00;133899;1274;1002708;-78
2023/03/14 03:23:18;;;;;;;11.10;5.20;;;;;;;-128.00;-1.00;-1.00;133872;1274;1002118;-78
2023/03/14 03:26:20;;;;;;;9.70;5.40;;;;;;;-128.00;-1.00;-1.00;133880;1274;1002077;-79
2023/03/14 03:29:22;;;;;;;9.60;5.70;;;;;;;-128.00;-1.00;-1.00;133907;1274;1002067;-79
2023/03/14 03:32:25;;;;;;;15.30;5.30;;;;;;;-128.00;-1.00;-1.00;133898;1274;1002504;-78
2023/03/14 03:35:27;;;;;;;9.50;5.60;;;;;;;-128.00;-1.00;-1.00;133891;1275;1001931;-78
2023/03/14 03:38:30;;;;;;;11.30;5.30;;;;;;;-128.00;-1.00;-1.00;133897;1274;1002460;-78
2023/03/14 03:41:32;;;;;;;7.20;5.10;;;;;;;-128.00;-1.00;-1.00;133902;1274;1002123;-78
2023/03/14 03:44:34;;;;;;;7.40;5.20;;;;;;;-128.00;-1.00;-1.00;133883;1274;1003411;-79
2023/03/14 03:47:37;;;;;;;7.60;5.30;;;;;;;-128.00;-1.00;-1.00;133852;1274;1002387;-77
2023/03/14 03:50:39;;;;;;;6.20;5.00;;;;;;;-128.00;-1.00;-1.00;133900;1274;1002124;-78
2023/03/14 03:53:42;;;;;;;7.90;5.40;;;;;;;-128.00;-1.00;-1.00;133933;1274;1002450;-77
2023/03/14 03:56:44;;;;;;;9.90;6.20;;;;;;;-128.00;-1.00;-1.00;133921;1274;1001906;-78
2023/03/14 03:59:47;;;;;;;7.90;5.30;;;;;;;-128.00;-1.00;-1.00;133888;1275;1002456;-78
2023/03/14 04:02:49;;;;;;;8.30;6.00;;;;;;;-128.00;-1.00;-1.00;133841;1276;1002553;-79
2023/03/14 04:05:51;;;;;;;10.40;5.00;;;;;;;-128.00;-1.00;-1.00;133828;1276;1002146;-78
2023/03/14 04:08:54;;;;;;;10.10;5.40;;;;;;;-128.00;-1.00;-1.00;133774;1276;1002291;-77
2023/03/14 04:11:56;;;;;;;10.90;6.20;;;;;;;-128.00;-1.00;-1.00;133808;1275;1002692;-78
2023/03/14 04:14:59;;;;;;;11.20;5.90;;;;;;;-128.00;-1.00;-1.00;133863;1275;1003024;-78
2023/03/14 04:18:01;;;;;;;7.60;5.20;;;;;;;-128.00;-1.00;-1.00;133818;1276;1002758;-78
2023/03/14 04:21:03;;;;;;;6.50;4.90;;;;;;;-128.00;-1.00;-1.00;133848;1275;1002442;-77
2023/03/14 04:24:06;;;;;;;11.90;5.20;;;;;;;-128.00;-1.00;-1.00;133799;1276;1002186;-78
2023/03/14 04:27:08;;;;;;;14.80;5.40;;;;;;;-128.00;-1.00;-1.00;133780;1276;1002500;-78
2023/03/14 04:30:11;;;;;;;14.30;7.60;;;;;;;-128.00;-1.00;-1.00;133782;1276;1002549;-78
2023/03/14 04:33:16;;;;;;;13.10;6.80;;;;;;;-128.00;-1.00;-1.00;133787;1276;1002351;-78
2023/03/14 04:36:19;;;;;;;18.90;8.20;;;;;;;-128.00;-1.00;-1.00;133829;1276;1002461;-78
2023/03/14 04:39:21;;;;;;;17.30;7.70;;;;;;;-128.00;-1.00;-1.00;133769;1276;1002597;-78
2023/03/14 04:42:24;;;;;;;17.80;8.80;;;;;;;-128.00;-1.00;-1.00;133691;1276;1002347;-78
2023/03/14 04:45:26;;;;;;;12.90;7.80;;;;;;;-128.00;-1.00;-1.00;133724;1276;1002700;-79
2023/03/14 04:48:28;;;;;;;14.10;8.00;;;;;;;-128.00;-1.00;-1.00;133713;1276;1002203;-78
2023/03/14 04:51:31;;;;;;;22.40;8.30;;;;;;;-128.00;-1.00;-1.00;133687;1276;1002786;-78
2023/03/14 04:54:33;;;;;;;10.80;7.40;;;;;;;-128.00;-1.00;-1.00;133665;1276;1002948;-78
2023/03/14 04:57:36;;;;;;;11.90;7.70;;;;;;;-128.00;-1.00;-1.00;133676;1276;1002491;-79
2023/03/14 05:00:38;;;;;;;11.40;6.90;;;;;;;-128.00;-1.00;-1.00;133778;1275;1002671;-79
2023/03/14 05:03:41;;;;;;;12.00;7.80;;;;;;;-128.00;-1.00;-1.00;133865;1274;1002752;-80
2023/03/14 05:06:44;;;;;;;10.20;7.10;;;;;;;-128.00;-1.00;-1.00;133828;1274;1002136;-79
2023/03/14 05:09:46;;;;;;;11.70;7.40;;;;;;;-128.00;-1.00;-1.00;133834;1274;1001852;-79
2023/03/14 05:12:49;;;;;;;13.20;7.10;;;;;;;-128.00;-1.00;-1.00;133895;1274;1002860;-79
2023/03/14 05:15:51;;;;;;;9.70;7.00;;;;;;;-128.00;-1.00;-1.00;133861;1274;1002661;-79
2023/03/14 05:18:53;;;;;;;11.50;6.90;;;;;;;-128.00;-1.00;-1.00;133803;1275;1003030;-79
2023/03/14 05:21:56;;;;;;;12.20;7.90;;;;;;;-128.00;-1.00;-1.00;133876;1274;1002030;-79
2023/03/14 05:24:58;;;;;;;14.10;7.80;;;;;;;-128.00;-1.00;-1.00;133852;1274;1001993;-79
2023/03/14 05:28:01;;;;;;;12.10;8.10;;;;;;;-128.00;-1.00;-1.00;133859;1274;1002123;-78
2023/03/14 05:31:03;;;;;;;11.70;7.80;;;;;;;-128.00;-1.00;-1.00;133916;1274;1002225;-80
2023/03/14 05:34:06;;;;;;;12.10;7.90;;;;;;;-128.00;-1.00;-1.00;133863;1274;1001995;-79
2023/03/14 05:37:08;;;;;;;12.10;8.20;;;;;;;-128.00;-1.00;-1.00;133848;1274;1002964;-78
2023/03/14 05:40:11;;;;;;;11.80;7.40;;;;;;;-128.00;-1.00;-1.00;133881;1274;1002055;-79
2023/03/14 05:43:14;;;;;;;12.90;7.90;;;;;;;-128.00;-1.00;-1.00;133905;1274;1002041;-80
2023/03/14 05:46:17;;;;;;;11.00;7.30;;;;;;;-128.00;-1.00;-1.00;133886;1274;1002038;-80
2023/03/14 05:49:19;;;;;;;74.00;13.50;;;;;;;-128.00;-1.00;-1.00;133907;1274;1002117;-80
2023/03/14 05:52:22;;;;;;;12.40;7.70;;;;;;;-128.00;-1.00;-1.00;133880;1274;1002257;-81
2023/03/14 05:55:24;;;;;;;11.60;7.10;;;;;;;-128.00;-1.00;-1.00;133841;1274;1002399;-79
2023/03/14 05:58:26;;;;;;;13.10;7.30;;;;;;;-128.00;-1.00;-1.00;133895;1274;1002137;-79
2023/03/14 06:01:29;;;;;;;14.60;7.60;;;;;;;-128.00;-1.00;-1.00;133742;1275;1002222;-79
2023/03/14 06:04:31;;;;;;;15.00;7.30;;;;;;;-128.00;-1.00;-1.00;133786;1274;1002425;-79
2023/03/14 06:07:34;;;;;;;11.40;7.90;;;;;;;-128.00;-1.00;-1.00;133829;1275;1002450;-79
2023/03/14 06:10:37;;;;;;;13.90;7.50;;;;;;;-128.00;-1.00;-1.00;133837;1274;1002422;-78
2023/03/14 06:13:39;;;;;;;17.20;7.80;;;;;;;-128.00;-1.00;-1.00;133849;1274;1002502;-82
2023/03/14 06:16:42;;;;;;;12.40;7.60;;;;;;;-128.00;-1.00;-1.00;133859;1274;1002172;-80
2023/03/14 06:19:44;;;;;;;22.10;8.40;;;;;;;-128.00;-1.00;-1.00;133832;1274;1002160;-79
2023/03/14 06:22:47;;;;;;;19.40;8.20;;;;;;;-128.00;-1.00;-1.00;133841;1259;1002373;-79
2023/03/14 06:25:49;;;;;;;28.40;8.30;;;;;;;-128.00;-1.00;-1.00;133808;1274;1002188;-79
2023/03/14 06:28:53;;;;;;;10.90;6.70;;;;;;;-128.00;-1.00;-1.00;133817;1274;1002610;-77
2023/03/14 06:31:55;;;;;;;16.90;7.80;;;;;;;-128.00;-1.00;-1.00;133835;1274;1002177;-78
2023/03/14 06:35:00;;;;;;;11.00;7.70;;;;;;;-128.00;-1.00;-1.00;133832;1275;1001928;-78
2023/03/14 06:38:03;;;;;;;11.00;7.10;;;;;;;-128.00;-1.00;-1.00;133850;1274;1002368;-77
2023/03/14 06:41:05;;;;;;;15.20;7.60;;;;;;;-128.00;-1.00;-1.00;133833;1275;1002498;-77
2023/03/14 06:44:08;;;;;;;11.20;6.70;;;;;;;-128.00;-1.00;-1.00;133857;1275;1001961;-78
2023/03/14 06:47:10;;;;;;;9.00;7.70;;;;;;;-128.00;-1.00;-1.00;133811;1275;1001701;-79
2023/03/14 06:50:13;;;;;;;17.20;7.90;;;;;;;-128.00;-1.00;-1.00;133774;1275;1001996;-78
2023/03/14 06:53:15;;;;;;;10.70;6.70;;;;;;;-128.00;-1.00;-1.00;133837;1275;1002235;-78
2023/03/14 06:56:18;;;;;;;9.30;6.70;;;;;;;-128.00;-1.00;-1.00;133783;1275;1002568;-77
2023/03/14 06:59:20;;;;;;;7.70;6.10;;;;;;;-128.00;-1.00;-1.00;133779;1275;1002275;-78
2023/03/14 07:02:23;;;;;;;7.00;5.50;;;;;;;-128.00;-1.00;-1.00;133829;1275;1002033;-79
2023/03/14 07:05:25;;;;;;;12.50;6.80;;;;;;;-128.00;-1.00;-1.00;133825;1275;1002123;-78
2023/03/14 07:08:28;;;;;;;10.20;6.30;;;;;;;-128.00;-1.00;-1.00;133795;1275;1002391;-77
2023/03/14 07:11:30;;;;;;;23.30;7.60;;;;;;;-128.00;-1.00;-1.00;133720;1275;1002160;-78
2023/03/14 07:14:32;;;;;;;8.70;6.40;;;;;;;-128.00;-1.00;-1.00;133653;1274;1002734;-77
2023/03/14 07:17:35;;;;;;;11.40;6.90;;;;;;;-128.00;-1.00;-1.00;133771;1275;1002648;-77
2023/03/14 07:20:37;;;;;;;6.90;6.20;;;;;;;-128.00;-1.00;-1.00;133738;1274;1002554;-78
2023/03/14 07:23:40;;;;;;;10.20;6.60;;;;;;;-128.00;-1.00;-1.00;133773;1275;1002371;-77
2023/03/14 07:26:43;;;;;;;7.80;5.80;;;;;;;-128.00;-1.00;-1.00;133811;1275;1002421;-77
2023/03/14 07:29:46;;;;;;;10.60;6.60;;;;;;;-128.00;-1.00;-1.00;133832;1275;1002519;-77
2023/03/14 07:32:48;;;;;;;11.50;7.20;;;;;;;-128.00;-1.00;-1.00;133766;1275;1002151;-78
2023/03/14 07:35:51;;;;;;;11.00;7.20;;;;;;;-128.00;-1.00;-1.00;133821;1275;1002117;-79
2023/03/14 07:38:53;;;;;;;15.50;7.30;;;;;;;-128.00;-1.00;-1.00;133808;1275;1001836;-78
2023/03/14 07:41:56;;;;;;;8.40;6.30;;;;;;;-128.00;-1.00;-1.00;133757;1275;1002230;-78
2023/03/14 07:44:58;;;;;;;8.90;6.20;;;;;;;-128.00;-1.00;-1.00;133813;1275;1002759;-78
2023/03/14 07:48:01;;;;;;;8.90;6.50;;;;;;;-128.00;-1.00;-1.00;133825;1274;1002165;-80
2023/03/14 07:51:04;;;;;;;14.00;6.60;;;;;;;-128.00;-1.00;-1.00;133806;1274;1002931;-80
2023/03/14 07:54:07;;;;;;;37.20;8.10;;;;;;;-128.00;-1.00;-1.00;133839;1274;1002399;-78
2023/03/14 07:57:09;;;;;;;19.20;6.70;;;;;;;-128.00;-1.00;-1.00;133845;1274;1002455;-78
2023/03/14 08:00:13;;;;;;;9.50;6.00;;;;;;;-128.00;-1.00;-1.00;133826;1275;1002117;-78
2023/03/14 08:03:16;;;;;;;19.90;6.10;;;;;;;-128.00;-1.00;-1.00;133914;1275;1002650;-78
2023/03/14 08:06:21;;;;;;;10.60;6.30;;;;;;;-128.00;-1.00;-1.00;133853;1274;1002406;-78
2023/03/14 08:09:23;;;;;;;14.70;6.50;;;;;;;-128.00;-1.00;-1.00;133865;1274;1002185;-78
2023/03/14 08:12:25;;;;;;;8.30;5.80;;;;;;;-128.00;-1.00;-1.00;133833;1274;1003004;-77
2023/03/14 08:15:28;;;;;;;31.50;7.70;;;;;;;-128.00;-1.00;-1.00;133819;1274;1002559;-77
2023/03/14 08:18:30;;;;;;;28.00;7.20;;;;;;;-128.00;-1.00;-1.00;133783;1274;1002372;-77
2023/03/14 08:21:33;;;;;;;18.70;6.40;;;;;;;-128.00;-1.00;-1.00;133784;1275;1002343;-77
2023/03/14 08:24:35;;;;;;;15.80;5.80;;;;;;;-128.00;-1.00;-1.00;133817;1274;1002662;-78
2023/03/14 08:27:38;;;;;;;11.30;5.80;;;;;;;-128.00;-1.00;-1.00;133836;1260;1002369;-77
2023/03/14 08:30:41;;;;;;;15.40;6.00;;;;;;;-128.00;-1.00;-1.00;133836;1274;1002876;-77
2023/03/14 08:33:43;;;;;;;25.20;6.30;;;;;;;-128.00;-1.00;-1.00;133835;1274;1002307;-77
2023/03/14 08:36:46;;;;;;;52.30;9.10;;;;;;;-128.00;-1.00;-1.00;133865;1274;1002415;-77
2023/03/14 08:39:48;;;;;;;12.50;6.10;;;;;;;-128.00;-1.00;-1.00;133863;1275;1002298;-77
2023/03/14 08:42:51;;;;;;;30.50;7.40;;;;;;;-128.00;-1.00;-1.00;133828;1275;1002406;-78
2023/03/14 08:45:53;;;;;;;17.60;6.30;;;;;;;-128.00;-1.00;-1.00;133890;1274;1002815;-77
2023/03/14 08:48:56;;;;;;;11.20;6.40;;;;;;;-128.00;-1.00;-1.00;133862;1274;1002050;-77
2023/03/14 08:51:58;;;;;;;296.70;131.10;;;;;;;-128.00;-1.00;-1.00;133829;1274;1002354;-77
2023/03/14 08:55:01;;;;;;;23.60;6.80;;;;;;;-128.00;-1.00;-1.00;133876;1274;1002346;-77
2023/03/14 08:58:03;;;;;;;216.60;18.90;;;;;;;-128.00;-1.00;-1.00;133856;1274;1002350;-77
2023/03/14 09:01:05;;;;;;;21.20;8.80;;;;;;;-128.00;-1.00;-1.00;133880;1274;1002321;-77
2023/03/14 09:04:09;;;;;;;90.00;52.90;;;;;;;-128.00;-1.00;-1.00;133810;1275;1002519;-77
2023/03/14 09:07:11;;;;;;;13.00;6.10;;;;;;;-128.00;-1.00;-1.00;133776;1274;1002308;-77
2023/03/14 09:10:14;;;;;;;7.30;5.30;;;;;;;-128.00;-1.00;-1.00;133737;1274;1002473;-77
2023/03/14 09:13:16;;;;;;;8.50;5.90;;;;;;;-128.00;-1.00;-1.00;133789;1275;1002057;-78
2023/03/14 09:16:19;;;;;;;36.40;5.70;;;;;;;-128.00;-1.00;-1.00;133824;1274;1002182;-78
2023/03/14 09:19:21;;;;;;;42.30;6.80;;;;;;;-128.00;-1.00;-1.00;133818;1274;1002715;-77
2023/03/14 09:22:23;;;;;;;139.50;61.80;;;;;;;-128.00;-1.00;-1.00;133777;1274;1002354;-77
2023/03/14 09:25:26;;;;;;;30.50;16.30;;;;;;;-128.00;-1.00;-1.00;133803;1274;1002207;-77
2023/03/14 09:28:28;;;;;;;56.90;6.30;;;;;;;-128.00;-1.00;-1.00;133766;1275;1002084;-77
2023/03/14 09:31:31;;;;;;;18.50;5.60;;;;;;;-128.00;-1.00;-1.00;133784;1274;1002288;-78
2023/03/14 09:34:33;;;;;;;339.50;242.90;;;;;;;-128.00;-1.00;-1.00;133794;1274;1001903;-76
2023/03/14 09:37:36;;;;;;;18.40;6.90;;;;;;;-128.00;-1.00;-1.00;133806;1275;1002621;-77
2023/03/14 09:40:38;;;;;;;23.70;6.20;;;;;;;-128.00;-1.00;-1.00;133827;1274;1002287;-78
2023/03/14 09:43:40;;;;;;;21.90;6.00;;;;;;;-128.00;-1.00;-1.00;133777;1275;1002589;-77
2023/03/14 09:46:43;;;;;;;16.60;6.30;;;;;;;-128.00;-1.00;-1.00;133874;1275;1002100;-78
2023/03/14 09:49:45;;;;;;;18.30;6.40;;;;;;;-128.00;-1.00;-1.00;133890;1274;1002275;-77
2023/03/14 09:52:48;;;;;;;15.60;4.80;;;;;;;-128.00;-1.00;-1.00;133857;1274;1002069;-77
2023/03/14 09:55:50;;;;;;;11.00;5.20;;;;;;;-128.00;-1.00;-1.00;133827;1275;1002241;-77
2023/03/14 09:58:53;;;;;;;15.40;5.40;;;;;;;-128.00;-1.00;-1.00;133820;1275;1002985;-77
2023/03/14 10:01:55;;;;;;;14.10;5.00;;;;;;;-128.00;-1.00;-1.00;133821;1275;1001993;-78
2023/03/14 10:04:58;;;;;;;35.20;5.70;;;;;;;-128.00;-1.00;-1.00;133816;1274;1002198;-77
2023/03/14 10:08:00;;;;;;;15.10;4.60;;;;;;;-128.00;-1.00;-1.00;133846;1275;1002199;-75
2023/03/14 10:11:02;;;;;;;11.50;3.90;;;;;;;-128.00;-1.00;-1.00;133851;1275;1003028;-77
2023/03/14 10:14:05;;;;;;;47.10;6.60;;;;;;;-128.00;-1.00;-1.00;133856;1274;1002101;-78
2023/03/14 10:17:09;;;;;;;22.40;5.50;;;;;;;-128.00;-1.00;-1.00;133878;1275;1002670;-77
2023/03/14 10:20:11;;;;;;;;;;;;;;;-128.00;-1.00;-1.00;133866;1275;1002930;-78
2023/03/14 10:23:14;;;;;;;133.40;9.70;;;;;;;-128.00;-1.00;-1.00;133865;1274;1002308;-77
2023/03/14 10:26:17;;;;;;;11.10;4.90;;;;;;;-128.00;-1.00;-1.00;133840;1275;1001836;-77
2023/03/14 10:29:21;;;;;;;23.80;5.80;;;;;;;-128.00;-1.00;-1.00;133845;1275;1002696;-77
2023/03/14 10:32:23;;;;;;;47.60;6.80;;;;;;;-128.00;-1.00;-1.00;133836;1275;1002487;-77
2023/03/14 10:35:26;;;;;;;13.70;5.60;;;;;;;-128.00;-1.00;-1.00;133827;1274;1001944;-78
2023/03/14 10:38:28;;;;;;;20.20;6.40;;;;;;;-128.00;-1.00;-1.00;133851;1274;1002927;-77
2023/03/14 10:41:31;;;;;;;13.00;5.60;;;;;;;-128.00;-1.00;-1.00;133831;1275;1002454;-78
2023/03/14 10:44:33;;;;;;;12.80;6.00;;;;;;;-128.00;-1.00;-1.00;133882;1274;1002285;-78
2023/03/14 10:47:36;;;;;;;17.00;6.00;;;;;;;-128.00;-1.00;-1.00;133842;1275;1002245;-77
2023/03/14 10:50:38;;;;;;;74.40;43.00;;;;;;;-128.00;-1.00;-1.00;133823;1275;1002263;-78
2023/03/14 10:53:40;;;;;;;22.00;12.20;;;;;;;-128.00;-1.00;-1.00;133814;1275;1002433;-78
2023/03/14 10:56:43;;;;;;;20.10;9.30;;;;;;;-128.00;-1.00;-1.00;133831;1275;1002825;-78
2023/03/14 10:59:45;;;;;;;22.00;7.40;;;;;;;-128.00;-1.00;-1.00;133793;1274;1003036;-78
2023/03/14 11:02:48;;;;;;;15.90;6.50;;;;;;;-128.00;-1.00;-1.00;133796;1275;1002398;-77
2023/03/14 11:05:50;;;;;;;14.00;5.90;;;;;;;-128.00;-1.00;-1.00;133829;1275;1002177;-77
2023/03/14 11:08:53;;;;;;;18.10;8.90;;;;;;;-128.00;-1.00;-1.00;133778;1275;1002062;-77
2023/03/14 11:11:55;;;;;;;7.60;5.00;;;;;;;-128.00;-1.00;-1.00;133842;1274;1002316;-78
2023/03/14 11:14:58;;;;;;;18.30;6.30;;;;;;;-128.00;-1.00;-1.00;133852;1275;1002879;-77
2023/03/14 11:18:00;;;;;;;16.90;5.80;;;;;;;-128.00;-1.00;-1.00;133869;1274;1002440;-78
2023/03/14 11:21:02;;;;;;;26.70;5.80;;;;;;;-128.00;-1.00;-1.00;133858;1274;1002231;-76
2023/03/14 11:24:05;;;;;;;26.70;6.70;;;;;;;-128.00;-1.00;-1.00;133758;1275;1002363;-76
2023/03/14 11:27:09;;;;;;;13.90;6.90;;;;;;;-128.00;-1.00;-1.00;133865;1274;1001806;-77
2023/03/14 11:30:11;;;;;;;15.60;5.50;;;;;;;-128.00;-1.00;-1.00;133846;1274;1002226;-78
2023/03/14 11:33:14;;;;;;;74.80;9.30;;;;;;;-128.00;-1.00;-1.00;133815;1274;1002057;-77
2023/03/14 11:36:16;;;;;;;72.60;8.40;;;;;;;-128.00;-1.00;-1.00;133803;1275;1002034;-76
2023/03/14 11:39:18;;;;;;;69.90;17.40;;;;;;;-128.00;-1.00;-1.00;133810;1275;1002144;-77
2023/03/14 11:42:21;;;;;;;51.20;13.80;;;;;;;-128.00;-1.00;-1.00;133780;1275;1002542;-76
2023/03/14 11:45:23;;;;;;;32.30;11.10;;;;;;;-128.00;-1.00;-1.00;133755;1275;1002284;-77
2023/03/14 11:48:26;;;;;;;35.40;9.40;;;;;;;-128.00;-1.00;-1.00;133787;1275;1002207;-76
2023/03/14 11:51:28;;;;;;;181.20;99.20;;;;;;;-128.00;-1.00;-1.00;133793;1274;1002293;-77
2023/03/14 11:54:31;;;;;;;40.60;12.90;;;;;;;-128.00;-1.00;-1.00;133780;1274;1002401;-76
2023/03/14 11:57:33;;;;;;;59.90;8.10;;;;;;;-128.00;-1.00;-1.00;133835;1275;1002593;-76
2023/03/14 12:00:37;;;;;;;20.80;6.70;;;;;;;-128.00;-1.00;-1.00;133825;1275;1002472;-76
2023/03/14 12:03:40;;;;;;;31.70;7.80;;;;;;;-128.00;-1.00;-1.00;133801;1275;1002543;-78
2023/03/14 12:06:42;;;;;;;13.50;5.40;;;;;;;-128.00;-1.00;-1.00;133637;1276;1001966;-77
2023/03/14 12:09:45;;;;;;;19.70;6.20;;;;;;;-128.00;-1.00;-1.00;133593;1276;1003126;-77
2023/03/14 12:12:47;;;;;;;17.50;6.30;;;;;;;-128.00;-1.00;-1.00;133624;1276;1002534;-77
2023/03/14 12:15:50;;;;;;;12.00;5.70;;;;;;;-128.00;-1.00;-1.00;133669;1276;1002453;-76
2023/03/14 12:18:52;;;;;;;22.50;5.90;;;;;;;-128.00;-1.00;-1.00;133652;1276;1002209;-77
2023/03/14 12:21:54;;;;;;;45.80;7.10;;;;;;;-128.00;-1.00;-1.00;133611;1276;1002416;-77
2023/03/14 12:24:57;;;;;;;32.70;7.70;;;;;;;-128.00;-1.00;-1.00;133652;1262;1002323;-77
2023/03/14 12:27:59;;;;;;;13.00;5.70;;;;;;;-128.00;-1.00;-1.00;133819;1275;1002152;-77
2023/03/14 12:31:04;;;;;;;;;;;;;;;-128.00;-1.00;-1.00;133842;1275;1002086;-78
2023/03/14 12:34:06;;;;;;;74.40;34.10;;;;;;;-128.00;-1.00;-1.00;133810;1274;1002426;-77
2023/03/14 12:37:08;;;;;;;21.90;9.40;;;;;;;-128.00;-1.00;-1.00;133788;1274;1001933;-77
2023/03/14 12:40:14;;;;;;;18.80;6.90;;;;;;;-128.00;-1.00;-1.00;133794;1274;1002289;-77
2023/03/14 12:43:17;;;;;;;13.90;5.80;;;;;;;-128.00;-1.00;-1.00;133784;1274;1002523;-78
2023/03/14 12:46:19;;;;;;;18.00;5.50;;;;;;;-128.00;-1.00;-1.00;133787;1274;1002241;-77
2023/03/14 12:49:22;;;;;;;32.90;13.30;;;;;;;-128.00;-1.00;-1.00;133835;1275;1002752;-77
2023/03/14 12:52:25;;;;;;;29.50;9.50;;;;;;;-128.00;-1.00;-1.00;133847;1274;1002657;-77
2023/03/14 12:55:27;;;;;;;14.50;7.10;;;;;;;-128.00;-1.00;-1.00;133850;1274;1002352;-78
2023/03/14 12:58:30;;;;;;;11.70;7.40;;;;;;;-128.00;-1.00;-1.00;133838;1274;1002439;-77
2023/03/14 13:01:33;;;;;;;14.90;6.30;;;;;;;-128.00;-1.00;-1.00;133812;1275;1002271;-78
2023/03/14 13:04:35;;;;;;;11.70;6.40;;;;;;;-128.00;-1.00;-1.00;133826;1275;1002558;-78
2023/03/14 13:07:38;;;;;;;15.50;6.70;;;;;;;-128.00;-1.00;-1.00;133830;1275;1002246;-81
2023/03/14 13:10:41;;;;;;;13.80;5.90;;;;;;;-128.00;-1.00;-1.00;133779;1270;1002329;-81
2023/03/14 13:13:43;;;;;;;16.20;5.80;;;;;;;-128.00;-1.00;-1.00;133764;1274;1003010;-81
2023/03/14 13:16:46;;;;;;;18.60;5.30;;;;;;;-128.00;-1.00;-1.00;133809;1275;1003053;-80
2023/03/14 13:19:48;;;;;;;9.50;5.40;;;;;;;-128.00;-1.00;-1.00;133806;1274;1002210;-81
2023/03/14 13:22:51;;;;;;;13.10;5.30;;;;;;;-128.00;-1.00;-1.00;133772;1275;1002507;-81
2023/03/14 13:25:53;;;;;;;13.10;4.90;;;;;;;-128.00;-1.00;-1.00;133802;1275;1003049;-80
2023/03/14 13:28:55;;;;;;;8.70;5.00;;;;;;;-128.00;-1.00;-1.00;133840;1274;1002443;-81
2023/03/14 13:31:58;;;;;;;9.00;5.20;;;;;;;-128.00;-1.00;-1.00;133837;1275;1002171;-81
2023/03/14 13:35:01;;;;;;;8.70;5.00;;;;;;;-128.00;-1.00;-1.00;133842;1275;1002305;-81
2023/03/14 13:38:03;;;;;;;10.50;5.00;;;;;;;-128.00;-1.00;-1.00;133836;1274;1002359;-82
2023/03/14 13:41:06;;;;;;;6.20;5.00;;;;;;;-128.00;-1.00;-1.00;133845;1274;1001954;-80
2023/03/14 13:44:08;;;;;;;14.10;5.00;;;;;;;-128.00;-1.00;-1.00;133785;1275;1002679;-81
2023/03/14 13:47:11;;;;;;;6.60;4.20;;;;;;;-128.00;-1.00;-1.00;133830;1275;1002389;-80
2023/03/14 13:50:13;;;;;;;9.90;4.70;;;;;;;-128.00;-1.00;-1.00;133819;1275;1002103;-79